Mapes, North Dakota
Current Conditions -  °F | °C
As of 12:35 PM on Wednesday 26 Nov 2014 (Local Time) from KDVL Reporting Station
Clear Clear  
Wind Chill: -17°   Ceiling: Unl
Heat Index:   Visibility: 10mi
Dew Point: -15°   Wind: 10mph
Humidity: 51%   Direction: 10°N
Pressure: 30.39"   Gusts: NA
Location:  48.021°N, 98.3447°W
Report Text: KDVL 261835Z AUTO 01009KT 10SM CLR M18/M26 A3039 RMK AO1
Loading
Personal Weather Stations






























Interactive Weather Map New forecast layout! Learn more

10-Day Weather Forecast

Advertisements
Track Severe Weather on mobile